Terminal Aerodrome Forecast
Issued by NWS

Home | Current Version | Previous Version | Text Only | Print | Product List | Glossary On
Versions: 1 2 3 4 5 6 7 8 9 10 11 12 13 14
572
FTUS46 KHNX 221737
TAFMER
TAF
KMER 221737Z 2218/2318 16015G28KT 5SM -RA OVC040
     FM230100 30012G19KT P6SM -SHRA SCT025 BKN050
     FM230700 31009KT P6SM SCT050
      AMD NOT SKED=

USA.gov is the U.S. government's official web portal to all federal, state and local government web resources and services.